sensor_id;sensor_type;location;lat;lon;timestamp;P1;durP1;ratioP1;P2;durP2;ratioP2
72728;SDS011;60843;52.062;4.508;2023-04-06T00:01:44;36.10;;;13.30;;
72728;SDS011;60843;52.062;4.508;2023-04-06T00:04:11;29.35;;;11.73;;
72728;SDS011;60843;52.062;4.508;2023-04-06T00:06:37;27.23;;;12.15;;
72728;SDS011;60843;52.062;4.508;2023-04-06T00:09:02;31.73;;;13.20;;
72728;SDS011;60843;52.062;4.508;2023-04-06T00:11:28;27.88;;;11.60;;
72728;SDS011;60843;52.062;4.508;2023-04-06T00:13:53;31.93;;;12.33;;
72728;SDS011;60843;52.062;4.508;2023-04-06T00:16:19;30.30;;;12.50;;
72728;SDS011;60843;52.062;4.508;2023-04-06T00:18:45;23.83;;;11.38;;
72728;SDS011;60843;52.062;4.508;2023-04-06T00:21:11;33.08;;;12.15;;
72728;SDS011;60843;52.062;4.508;2023-04-06T00:26:09;25.33;;;12.05;;
72728;SDS011;60843;52.062;4.508;2023-04-06T00:28:35;25.88;;;10.93;;
72728;SDS011;60843;52.062;4.508;2023-04-06T00:31:01;23.15;;;10.48;;
72728;SDS011;60843;52.062;4.508;2023-04-06T00:33:27;29.57;;;10.13;;
72728;SDS011;60843;52.062;4.508;2023-04-06T00:35:52;22.83;;;9.97;;
72728;SDS011;60843;52.062;4.508;2023-04-06T00:38:17;19.43;;;9.27;;
72728;SDS011;60843;52.062;4.508;2023-04-06T00:40:43;23.07;;;9.60;;
72728;SDS011;60843;52.062;4.508;2023-04-06T00:43:12;20.33;;;9.98;;
72728;SDS011;60843;52.062;4.508;2023-04-06T00:45:38;19.60;;;8.73;;
72728;SDS011;60843;52.062;4.508;2023-04-06T00:48:04;19.63;;;8.65;;
72728;SDS011;60843;52.062;4.508;2023-04-06T00:50:31;21.20;;;8.68;;
72728;SDS011;60843;52.062;4.508;2023-04-06T00:52:56;20.42;;;9.02;;
72728;SDS011;60843;52.062;4.508;2023-04-06T00:55:22;18.60;;;7.90;;
72728;SDS011;60843;52.062;4.508;2023-04-06T00:57:47;19.23;;;8.03;;
72728;SDS011;60843;52.062;4.508;2023-04-06T01:00:14;18.83;;;8.27;;
72728;SDS011;60843;52.062;4.508;2023-04-06T01:02:41;15.35;;;7.88;;
72728;SDS011;60843;52.062;4.508;2023-04-06T01:05:06;17.90;;;7.77;;
72728;SDS011;60843;52.062;4.508;2023-04-06T01:07:31;16.85;;;7.40;;
72728;SDS011;60843;52.062;4.508;2023-04-06T01:09:57;16.60;;;7.60;;
72728;SDS011;60843;52.062;4.508;2023-04-06T01:12:23;14.73;;;6.55;;
72728;SDS011;60843;52.062;4.508;2023-04-06T01:14:48;18.00;;;8.10;;
72728;SDS011;60843;52.062;4.508;2023-04-06T01:17:14;14.38;;;7.10;;
72728;SDS011;60843;52.062;4.508;2023-04-06T01:19:39;15.00;;;7.20;;
72728;SDS011;60843;52.062;4.508;2023-04-06T01:22:05;17.48;;;6.55;;
72728;SDS011;60843;52.062;4.508;2023-04-06T01:24:31;16.42;;;7.65;;
72728;SDS011;60843;52.062;4.508;2023-04-06T01:26:57;14.30;;;6.57;;
72728;SDS011;60843;52.062;4.508;2023-04-06T01:29:29;13.75;;;6.80;;
72728;SDS011;60843;52.062;4.508;2023-04-06T01:31:55;14.00;;;6.63;;
72728;SDS011;60843;52.062;4.508;2023-04-06T01:34:20;13.40;;;6.80;;
72728;SDS011;60843;52.062;4.508;2023-04-06T01:36:45;14.13;;;7.30;;
72728;SDS011;60843;52.062;4.508;2023-04-06T01:39:11;15.87;;;7.07;;
72728;SDS011;60843;52.062;4.508;2023-04-06T01:41:36;13.93;;;6.30;;
72728;SDS011;60843;52.062;4.508;2023-04-06T01:44:02;14.73;;;6.60;;
72728;SDS011;60843;52.062;4.508;2023-04-06T01:46:27;16.63;;;6.78;;
72728;SDS011;60843;52.062;4.508;2023-04-06T01:48:52;14.37;;;7.53;;
72728;SDS011;60843;52.062;4.508;2023-04-06T01:54:10;16.27;;;7.18;;
72728;SDS011;60843;52.062;4.508;2023-04-06T01:56:36;14.85;;;7.05;;
72728;SDS011;60843;52.062;4.508;2023-04-06T01:59:01;18.87;;;7.27;;
72728;SDS011;60843;52.062;4.508;2023-04-06T02:01:27;12.35;;;6.57;;
72728;SDS011;60843;52.062;4.508;2023-04-06T02:03:52;13.43;;;6.85;;
72728;SDS011;60843;52.062;4.508;2023-04-06T02:06:17;13.77;;;7.17;;
72728;SDS011;60843;52.062;4.508;2023-04-06T02:08:43;13.25;;;6.90;;
72728;SDS011;60843;52.062;4.508;2023-04-06T02:11:08;12.67;;;6.87;;
72728;SDS011;60843;52.062;4.508;2023-04-06T02:13:34;14.13;;;6.70;;
72728;SDS011;60843;52.062;4.508;2023-04-06T02:15:59;13.53;;;6.90;;
72728;SDS011;60843;52.062;4.508;2023-04-06T02:18:25;14.20;;;6.63;;
72728;SDS011;60843;52.062;4.508;2023-04-06T02:20:50;13.43;;;6.72;;
72728;SDS011;60843;52.062;4.508;2023-04-06T02:23:16;13.73;;;6.63;;
72728;SDS011;60843;52.062;4.508;2023-04-06T02:25:41;15.70;;;7.22;;
72728;SDS011;60843;52.062;4.508;2023-04-06T02:28:07;16.02;;;7.20;;
72728;SDS011;60843;52.062;4.508;2023-04-06T02:30:32;14.45;;;7.63;;
72728;SDS011;60843;52.062;4.508;2023-04-06T02:32:59;17.25;;;7.53;;
72728;SDS011;60843;52.062;4.508;2023-04-06T02:35:25;12.32;;;6.68;;
72728;SDS011;60843;52.062;4.508;2023-04-06T02:37:50;10.53;;;6.30;;
72728;SDS011;60843;52.062;4.508;2023-04-06T02:40:15;13.53;;;7.03;;
72728;SDS011;60843;52.062;4.508;2023-04-06T02:42:41;14.77;;;7.37;;
72728;SDS011;60843;52.062;4.508;2023-04-06T02:45:06;16.80;;;7.53;;
72728;SDS011;60843;52.062;4.508;2023-04-06T02:47:32;14.52;;;6.85;;
72728;SDS011;60843;52.062;4.508;2023-04-06T02:49:58;14.38;;;7.10;;
72728;SDS011;60843;52.062;4.508;2023-04-06T02:52:24;15.07;;;7.30;;
72728;SDS011;60843;52.062;4.508;2023-04-06T02:54:50;16.70;;;7.50;;
72728;SDS011;60843;52.062;4.508;2023-04-06T02:57:16;14.65;;;6.93;;
72728;SDS011;60843;52.062;4.508;2023-04-06T02:59:41;19.00;;;7.97;;
72728;SDS011;60843;52.062;4.508;2023-04-06T03:02:07;14.83;;;7.43;;
72728;SDS011;60843;52.062;4.508;2023-04-06T03:04:32;15.03;;;7.20;;
72728;SDS011;60843;52.062;4.508;2023-04-06T03:06:57;15.23;;;7.27;;
72728;SDS011;60843;52.062;4.508;2023-04-06T03:09:23;13.50;;;6.47;;
72728;SDS011;60843;52.062;4.508;2023-04-06T03:11:48;17.43;;;7.63;;
72728;SDS011;60843;52.062;4.508;2023-04-06T03:14:14;14.97;;;7.37;;
72728;SDS011;60843;52.062;4.508;2023-04-06T03:19:07;14.10;;;7.00;;
72728;SDS011;60843;52.062;4.508;2023-04-06T03:24:01;13.93;;;6.68;;
72728;SDS011;60843;52.062;4.508;2023-04-06T03:26:26;15.93;;;7.97;;
72728;SDS011;60843;52.062;4.508;2023-04-06T03:28:51;16.50;;;7.47;;
72728;SDS011;60843;52.062;4.508;2023-04-06T03:31:17;15.35;;;7.85;;
72728;SDS011;60843;52.062;4.508;2023-04-06T03:33:42;15.55;;;7.55;;
72728;SDS011;60843;52.062;4.508;2023-04-06T03:36:08;17.10;;;6.80;;
72728;SDS011;60843;52.062;4.508;2023-04-06T03:38:33;17.17;;;8.00;;
72728;SDS011;60843;52.062;4.508;2023-04-06T03:40:58;15.75;;;7.40;;
72728;SDS011;60843;52.062;4.508;2023-04-06T03:43:24;14.30;;;7.80;;
72728;SDS011;60843;52.062;4.508;2023-04-06T03:45:49;15.35;;;7.53;;
72728;SDS011;60843;52.062;4.508;2023-04-06T03:48:15;15.98;;;7.63;;
72728;SDS011;60843;52.062;4.508;2023-04-06T03:50:40;17.08;;;7.63;;
72728;SDS011;60843;52.062;4.508;2023-04-06T03:53:06;14.23;;;7.33;;
72728;SDS011;60843;52.062;4.508;2023-04-06T03:55:31;14.67;;;7.90;;
72728;SDS011;60843;52.062;4.508;2023-04-06T03:57:56;18.73;;;8.00;;
72728;SDS011;60843;52.062;4.508;2023-04-06T04:00:22;17.07;;;8.03;;
72728;SDS011;60843;52.062;4.508;2023-04-06T04:02:47;14.80;;;7.38;;
72728;SDS011;60843;52.062;4.508;2023-04-06T04:05:13;15.73;;;7.47;;
72728;SDS011;60843;52.062;4.508;2023-04-06T04:07:38;20.85;;;8.45;;
72728;SDS011;60843;52.062;4.508;2023-04-06T04:10:04;16.17;;;7.37;;
72728;SDS011;60843;52.062;4.508;2023-04-06T04:12:30;19.00;;;8.32;;
72728;SDS011;60843;52.062;4.508;2023-04-06T04:14:56;18.40;;;8.05;;
72728;SDS011;60843;52.062;4.508;2023-04-06T04:17:21;15.53;;;8.10;;
72728;SDS011;60843;52.062;4.508;2023-04-06T04:19:46;18.52;;;7.25;;
72728;SDS011;60843;52.062;4.508;2023-04-06T04:22:12;16.33;;;7.53;;
72728;SDS011;60843;52.062;4.508;2023-04-06T04:24:39;15.35;;;8.40;;
72728;SDS011;60843;52.062;4.508;2023-04-06T04:27:05;18.00;;;8.85;;
72728;SDS011;60843;52.062;4.508;2023-04-06T04:29:30;16.37;;;7.50;;
72728;SDS011;60843;52.062;4.508;2023-04-06T04:31:55;17.55;;;8.07;;
72728;SDS011;60843;52.062;4.508;2023-04-06T04:34:21;14.05;;;7.80;;
72728;SDS011;60843;52.062;4.508;2023-04-06T04:36:48;16.42;;;8.35;;
72728;SDS011;60843;52.062;4.508;2023-04-06T04:39:14;15.97;;;7.60;;
72728;SDS011;60843;52.062;4.508;2023-04-06T04:41:39;20.33;;;8.68;;
72728;SDS011;60843;52.062;4.508;2023-04-06T04:44:05;18.03;;;8.37;;
72728;SDS011;60843;52.062;4.508;2023-04-06T04:46:31;17.93;;;8.60;;
72728;SDS011;60843;52.062;4.508;2023-04-06T04:48:57;16.90;;;8.63;;
72728;SDS011;60843;52.062;4.508;2023-04-06T04:51:23;17.95;;;7.97;;
72728;SDS011;60843;52.062;4.508;2023-04-06T04:53:49;16.48;;;8.07;;
72728;SDS011;60843;52.062;4.508;2023-04-06T04:56:15;19.83;;;8.65;;
72728;SDS011;60843;52.062;4.508;2023-04-06T04:58:40;20.10;;;8.75;;
72728;SDS011;60843;52.062;4.508;2023-04-06T05:01:05;18.13;;;8.70;;
72728;SDS011;60843;52.062;4.508;2023-04-06T05:03:32;20.17;;;8.83;;
72728;SDS011;60843;52.062;4.508;2023-04-06T05:05:57;20.85;;;8.98;;
72728;SDS011;60843;52.062;4.508;2023-04-06T05:08:23;21.42;;;8.65;;
72728;SDS011;60843;52.062;4.508;2023-04-06T05:10:48;22.87;;;9.53;;
72728;SDS011;60843;52.062;4.508;2023-04-06T05:13:14;20.45;;;9.35;;
72728;SDS011;60843;52.062;4.508;2023-04-06T05:15:39;21.55;;;8.63;;
72728;SDS011;60843;52.062;4.508;2023-04-06T05:18:06;23.48;;;9.20;;
72728;SDS011;60843;52.062;4.508;2023-04-06T05:20:37;23.38;;;10.05;;
72728;SDS011;60843;52.062;4.508;2023-04-06T05:23:03;27.00;;;10.38;;
72728;SDS011;60843;52.062;4.508;2023-04-06T05:25:28;26.07;;;10.23;;
72728;SDS011;60843;52.062;4.508;2023-04-06T05:27:54;21.23;;;9.80;;
72728;SDS011;60843;52.062;4.508;2023-04-06T05:30:21;28.57;;;10.10;;
72728;SDS011;60843;52.062;4.508;2023-04-06T05:32:46;29.00;;;10.60;;
72728;SDS011;60843;52.062;4.508;2023-04-06T05:35:12;22.08;;;9.93;;
72728;SDS011;60843;52.062;4.508;2023-04-06T05:37:38;26.98;;;10.73;;
72728;SDS011;60843;52.062;4.508;2023-04-06T05:40:04;23.58;;;10.55;;
72728;SDS011;60843;52.062;4.508;2023-04-06T05:42:38;24.90;;;11.13;;
72728;SDS011;60843;52.062;4.508;2023-04-06T05:45:04;32.97;;;11.10;;
72728;SDS011;60843;52.062;4.508;2023-04-06T05:47:30;32.42;;;11.70;;
72728;SDS011;60843;52.062;4.508;2023-04-06T05:49:56;24.77;;;11.35;;
72728;SDS011;60843;52.062;4.508;2023-04-06T05:52:21;27.88;;;11.05;;
72728;SDS011;60843;52.062;4.508;2023-04-06T05:54:46;29.83;;;11.40;;
72728;SDS011;60843;52.062;4.508;2023-04-06T05:57:12;24.38;;;11.18;;
72728;SDS011;60843;52.062;4.508;2023-04-06T05:59:37;25.30;;;11.57;;
72728;SDS011;60843;52.062;4.508;2023-04-06T06:02:03;26.83;;;11.67;;
72728;SDS011;60843;52.062;4.508;2023-04-06T06:07:22;30.20;;;12.52;;
72728;SDS011;60843;52.062;4.508;2023-04-06T06:10:38;30.13;;;11.98;;
72728;SDS011;60843;52.062;4.508;2023-04-06T06:13:05;31.77;;;12.50;;
72728;SDS011;60843;52.062;4.508;2023-04-06T06:15:30;31.00;;;13.33;;
72728;SDS011;60843;52.062;4.508;2023-04-06T06:17:55;35.58;;;12.27;;
72728;SDS011;60843;52.062;4.508;2023-04-06T06:20:21;28.60;;;12.88;;
72728;SDS011;60843;52.062;4.508;2023-04-06T06:22:47;27.90;;;12.88;;
72728;SDS011;60843;52.062;4.508;2023-04-06T06:25:12;31.15;;;12.43;;
72728;SDS011;60843;52.062;4.508;2023-04-06T06:27:38;29.75;;;13.07;;
72728;SDS011;60843;52.062;4.508;2023-04-06T06:30:03;27.87;;;11.90;;
72728;SDS011;60843;52.062;4.508;2023-04-06T06:32:29;29.60;;;13.13;;
72728;SDS011;60843;52.062;4.508;2023-04-06T06:34:55;28.07;;;13.13;;
72728;SDS011;60843;52.062;4.508;2023-04-06T06:37:20;30.38;;;13.23;;
72728;SDS011;60843;52.062;4.508;2023-04-06T06:39:45;32.10;;;13.23;;
72728;SDS011;60843;52.062;4.508;2023-04-06T06:42:11;29.92;;;13.52;;
72728;SDS011;60843;52.062;4.508;2023-04-06T06:44:36;29.38;;;12.70;;
72728;SDS011;60843;52.062;4.508;2023-04-06T06:47:02;34.53;;;15.03;;
72728;SDS011;60843;52.062;4.508;2023-04-06T06:49:27;27.50;;;12.83;;
72728;SDS011;60843;52.062;4.508;2023-04-06T06:51:56;29.55;;;12.70;;
72728;SDS011;60843;52.062;4.508;2023-04-06T06:54:22;29.70;;;13.05;;
72728;SDS011;60843;52.062;4.508;2023-04-06T06:56:59;33.20;;;14.23;;
72728;SDS011;60843;52.062;4.508;2023-04-06T06:59:25;30.10;;;13.18;;
72728;SDS011;60843;52.062;4.508;2023-04-06T07:01:50;30.77;;;13.27;;
72728;SDS011;60843;52.062;4.508;2023-04-06T07:04:16;36.20;;;13.13;;
72728;SDS011;60843;52.062;4.508;2023-04-06T07:06:41;27.30;;;13.23;;
72728;SDS011;60843;52.062;4.508;2023-04-06T07:09:06;30.02;;;12.50;;
72728;SDS011;60843;52.062;4.508;2023-04-06T07:11:32;28.20;;;12.47;;
72728;SDS011;60843;52.062;4.508;2023-04-06T07:13:57;26.60;;;11.65;;
72728;SDS011;60843;52.062;4.508;2023-04-06T07:16:23;27.45;;;12.10;;
72728;SDS011;60843;52.062;4.508;2023-04-06T07:18:48;33.10;;;13.40;;
72728;SDS011;60843;52.062;4.508;2023-04-06T07:21:13;30.43;;;13.33;;
72728;SDS011;60843;52.062;4.508;2023-04-06T07:23:39;29.40;;;12.63;;
72728;SDS011;60843;52.062;4.508;2023-04-06T07:26:05;26.20;;;11.93;;
72728;SDS011;60843;52.062;4.508;2023-04-06T07:28:30;30.50;;;13.75;;
72728;SDS011;60843;52.062;4.508;2023-04-06T07:30:55;27.00;;;11.63;;
72728;SDS011;60843;52.062;4.508;2023-04-06T07:33:21;31.50;;;12.40;;
72728;SDS011;60843;52.062;4.508;2023-04-06T07:35:46;26.80;;;11.68;;
72728;SDS011;60843;52.062;4.508;2023-04-06T07:38:11;27.83;;;12.32;;
72728;SDS011;60843;52.062;4.508;2023-04-06T07:40:37;26.77;;;11.77;;
72728;SDS011;60843;52.062;4.508;2023-04-06T07:43:03;24.00;;;12.07;;
72728;SDS011;60843;52.062;4.508;2023-04-06T07:45:28;28.83;;;11.93;;
72728;SDS011;60843;52.062;4.508;2023-04-06T07:47:54;24.80;;;12.50;;
72728;SDS011;60843;52.062;4.508;2023-04-06T07:50:20;24.70;;;11.88;;
72728;SDS011;60843;52.062;4.508;2023-04-06T07:52:46;21.90;;;10.63;;
72728;SDS011;60843;52.062;4.508;2023-04-06T07:55:11;24.92;;;11.85;;
72728;SDS011;60843;52.062;4.508;2023-04-06T07:57:36;27.25;;;11.93;;
72728;SDS011;60843;52.062;4.508;2023-04-06T08:00:02;22.90;;;11.68;;
72728;SDS011;60843;52.062;4.508;2023-04-06T08:02:28;29.35;;;12.85;;
72728;SDS011;60843;52.062;4.508;2023-04-06T08:04:54;22.58;;;10.07;;
72728;SDS011;60843;52.062;4.508;2023-04-06T08:07:20;22.15;;;10.82;;
72728;SDS011;60843;52.062;4.508;2023-04-06T08:09:45;20.70;;;10.87;;
72728;SDS011;60843;52.062;4.508;2023-04-06T08:14:57;22.20;;;10.13;;
72728;SDS011;60843;52.062;4.508;2023-04-06T08:17:23;22.15;;;10.55;;
72728;SDS011;60843;52.062;4.508;2023-04-06T08:19:49;24.90;;;10.10;;
72728;SDS011;60843;52.062;4.508;2023-04-06T08:22:14;23.40;;;10.30;;
72728;SDS011;60843;52.062;4.508;2023-04-06T08:24:40;24.27;;;11.63;;
72728;SDS011;60843;52.062;4.508;2023-04-06T08:27:05;29.42;;;12.50;;
72728;SDS011;60843;52.062;4.508;2023-04-06T08:29:30;26.00;;;12.30;;
72728;SDS011;60843;52.062;4.508;2023-04-06T08:31:56;29.83;;;13.00;;
72728;SDS011;60843;52.062;4.508;2023-04-06T08:34:21;29.63;;;13.30;;
72728;SDS011;60843;52.062;4.508;2023-04-06T08:36:48;23.42;;;11.93;;
72728;SDS011;60843;52.062;4.508;2023-04-06T08:39:15;24.35;;;12.48;;
72728;SDS011;60843;52.062;4.508;2023-04-06T08:41:44;19.50;;;10.02;;
72728;SDS011;60843;52.062;4.508;2023-04-06T08:44:10;26.60;;;11.75;;
72728;SDS011;60843;52.062;4.508;2023-04-06T08:46:36;26.52;;;12.75;;
72728;SDS011;60843;52.062;4.508;2023-04-06T08:49:02;21.90;;;9.00;;
72728;SDS011;60843;52.062;4.508;2023-04-06T08:51:28;29.65;;;13.18;;
72728;SDS011;60843;52.062;4.508;2023-04-06T08:53:55;23.42;;;12.35;;
72728;SDS011;60843;52.062;4.508;2023-04-06T08:56:22;25.80;;;11.57;;
72728;SDS011;60843;52.062;4.508;2023-04-06T08:58:52;24.92;;;10.48;;
72728;SDS011;60843;52.062;4.508;2023-04-06T09:01:20;31.38;;;12.77;;
72728;SDS011;60843;52.062;4.508;2023-04-06T09:03:51;16.67;;;8.60;;
72728;SDS011;60843;52.062;4.508;2023-04-06T09:06:22;21.30;;;10.30;;
72728;SDS011;60843;52.062;4.508;2023-04-06T09:08:48;21.47;;;10.03;;
72728;SDS011;60843;52.062;4.508;2023-04-06T09:11:14;18.42;;;7.47;;
72728;SDS011;60843;52.062;4.508;2023-04-06T09:13:46;22.65;;;9.48;;
72728;SDS011;60843;52.062;4.508;2023-04-06T09:16:13;21.58;;;7.85;;
72728;SDS011;60843;52.062;4.508;2023-04-06T09:18:39;18.83;;;8.55;;
72728;SDS011;60843;52.062;4.508;2023-04-06T09:21:05;23.02;;;9.35;;
72728;SDS011;60843;52.062;4.508;2023-04-06T09:23:31;19.50;;;7.60;;
72728;SDS011;60843;52.062;4.508;2023-04-06T09:28:58;15.02;;;6.85;;
72728;SDS011;60843;52.062;4.508;2023-04-06T09:31:30;12.68;;;5.72;;
72728;SDS011;60843;52.062;4.508;2023-04-06T09:33:58;11.45;;;5.22;;
72728;SDS011;60843;52.062;4.508;2023-04-06T09:36:34;16.13;;;6.93;;
72728;SDS011;60843;52.062;4.508;2023-04-06T09:39:03;12.98;;;5.55;;
72728;SDS011;60843;52.062;4.508;2023-04-06T09:41:33;10.00;;;5.22;;
72728;SDS011;60843;52.062;4.508;2023-04-06T09:44:03;10.27;;;5.20;;
72728;SDS011;60843;52.062;4.508;2023-04-06T09:46:33;13.70;;;6.13;;
72728;SDS011;60843;52.062;4.508;2023-04-06T09:49:01;13.27;;;6.07;;
72728;SDS011;60843;52.062;4.508;2023-04-06T09:51:27;12.18;;;5.75;;
72728;SDS011;60843;52.062;4.508;2023-04-06T09:53:55;14.35;;;6.32;;
72728;SDS011;60843;52.062;4.508;2023-04-06T09:56:26;14.60;;;6.43;;
72728;SDS011;60843;52.062;4.508;2023-04-06T09:58:54;22.25;;;6.20;;
72728;SDS011;60843;52.062;4.508;2023-04-06T10:01:22;14.30;;;6.88;;
72728;SDS011;60843;52.062;4.508;2023-04-06T10:03:55;12.27;;;5.88;;
72728;SDS011;60843;52.062;4.508;2023-04-06T10:06:25;14.00;;;6.00;;
72728;SDS011;60843;52.062;4.508;2023-04-06T10:08:52;10.65;;;6.03;;
72728;SDS011;60843;52.062;4.508;2023-04-06T10:11:19;14.05;;;5.88;;
72728;SDS011;60843;52.062;4.508;2023-04-06T10:13:45;12.95;;;6.55;;
72728;SDS011;60843;52.062;4.508;2023-04-06T10:16:14;9.25;;;4.97;;
72728;SDS011;60843;52.062;4.508;2023-04-06T10:18:40;16.90;;;6.07;;
72728;SDS011;60843;52.062;4.508;2023-04-06T10:21:12;7.80;;;4.45;;
72728;SDS011;60843;52.062;4.508;2023-04-06T10:26:27;7.63;;;4.15;;
72728;SDS011;60843;52.062;4.508;2023-04-06T10:28:53;13.32;;;6.30;;
72728;SDS011;60843;52.062;4.508;2023-04-06T10:31:26;11.77;;;6.70;;
72728;SDS011;60843;52.062;4.508;2023-04-06T10:33:59;12.93;;;6.13;;
72728;SDS011;60843;52.062;4.508;2023-04-06T10:36:31;9.45;;;5.18;;
72728;SDS011;60843;52.062;4.508;2023-04-06T10:38:59;13.82;;;6.45;;
72728;SDS011;60843;52.062;4.508;2023-04-06T10:41:45;12.65;;;6.43;;
72728;SDS011;60843;52.062;4.508;2023-04-06T10:44:23;13.55;;;6.05;;
72728;SDS011;60843;52.062;4.508;2023-04-06T10:46:54;15.20;;;6.65;;
72728;SDS011;60843;52.062;4.508;2023-04-06T10:49:21;13.25;;;6.47;;
72728;SDS011;60843;52.062;4.508;2023-04-06T10:51:50;11.77;;;6.28;;
72728;SDS011;60843;52.062;4.508;2023-04-06T10:54:17;11.88;;;6.55;;
72728;SDS011;60843;52.062;4.508;2023-04-06T10:56:42;14.43;;;7.30;;
72728;SDS011;60843;52.062;4.508;2023-04-06T10:59:07;10.27;;;5.53;;
72728;SDS011;60843;52.062;4.508;2023-04-06T11:01:33;13.52;;;7.03;;
72728;SDS011;60843;52.062;4.508;2023-04-06T11:03:59;12.93;;;6.95;;
72728;SDS011;60843;52.062;4.508;2023-04-06T11:06:26;10.77;;;5.85;;
72728;SDS011;60843;52.062;4.508;2023-04-06T11:08:54;11.30;;;6.80;;
72728;SDS011;60843;52.062;4.508;2023-04-06T11:11:21;8.65;;;5.32;;
72728;SDS011;60843;52.062;4.508;2023-04-06T11:16:18;10.43;;;6.60;;
72728;SDS011;60843;52.062;4.508;2023-04-06T11:21:16;10.43;;;4.80;;
72728;SDS011;60843;52.062;4.508;2023-04-06T11:23:42;9.95;;;5.63;;
72728;SDS011;60843;52.062;4.508;2023-04-06T11:26:11;10.70;;;5.72;;
72728;SDS011;60843;52.062;4.508;2023-04-06T11:28:37;9.60;;;5.15;;
72728;SDS011;60843;52.062;4.508;2023-04-06T11:31:03;11.93;;;6.18;;
72728;SDS011;60843;52.062;4.508;2023-04-06T11:33:29;10.10;;;5.10;;
72728;SDS011;60843;52.062;4.508;2023-04-06T11:36:00;11.13;;;6.20;;
72728;SDS011;60843;52.062;4.508;2023-04-06T11:38:26;12.38;;;7.07;;
72728;SDS011;60843;52.062;4.508;2023-04-06T11:40:54;11.77;;;6.75;;
72728;SDS011;60843;52.062;4.508;2023-04-06T11:45:58;10.77;;;6.80;;
72728;SDS011;60843;52.062;4.508;2023-04-06T11:48:25;5.88;;;3.67;;
72728;SDS011;60843;52.062;4.508;2023-04-06T11:50:54;12.63;;;6.30;;
72728;SDS011;60843;52.062;4.508;2023-04-06T11:53:21;12.02;;;6.90;;
72728;SDS011;60843;52.062;4.508;2023-04-06T11:55:46;10.50;;;4.47;;
72728;SDS011;60843;52.062;4.508;2023-04-06T11:58:12;14.50;;;7.10;;
72728;SDS011;60843;52.062;4.508;2023-04-06T12:00:37;6.10;;;3.87;;
72728;SDS011;60843;52.062;4.508;2023-04-06T12:03:03;9.60;;;4.57;;
72728;SDS011;60843;52.062;4.508;2023-04-06T12:05:28;11.03;;;6.00;;
72728;SDS011;60843;52.062;4.508;2023-04-06T12:07:54;6.43;;;4.00;;
72728;SDS011;60843;52.062;4.508;2023-04-06T12:10:20;9.43;;;5.25;;
72728;SDS011;60843;52.062;4.508;2023-04-06T12:12:45;9.13;;;5.93;;
72728;SDS011;60843;52.062;4.508;2023-04-06T12:15:11;13.83;;;6.70;;
72728;SDS011;60843;52.062;4.508;2023-04-06T12:17:36;9.40;;;5.87;;
72728;SDS011;60843;52.062;4.508;2023-04-06T12:20:01;5.47;;;3.58;;
72728;SDS011;60843;52.062;4.508;2023-04-06T12:22:27;7.03;;;3.78;;
72728;SDS011;60843;52.062;4.508;2023-04-06T12:24:53;6.80;;;3.85;;
72728;SDS011;60843;52.062;4.508;2023-04-06T12:27:18;8.40;;;4.07;;
72728;SDS011;60843;52.062;4.508;2023-04-06T12:29:43;9.53;;;4.57;;
72728;SDS011;60843;52.062;4.508;2023-04-06T12:32:09;7.70;;;4.43;;
72728;SDS011;60843;52.062;4.508;2023-04-06T12:34:34;10.48;;;5.70;;
72728;SDS011;60843;52.062;4.508;2023-04-06T12:37:00;5.20;;;2.60;;
72728;SDS011;60843;52.062;4.508;2023-04-06T12:39:26;6.17;;;3.07;;
72728;SDS011;60843;52.062;4.508;2023-04-06T12:41:52;8.38;;;4.38;;
72728;SDS011;60843;52.062;4.508;2023-04-06T12:44:18;7.85;;;4.72;;
72728;SDS011;60843;52.062;4.508;2023-04-06T12:46:43;8.73;;;5.27;;
72728;SDS011;60843;52.062;4.508;2023-04-06T12:49:09;11.73;;;5.85;;
72728;SDS011;60843;52.062;4.508;2023-04-06T12:51:36;8.40;;;3.90;;
72728;SDS011;60843;52.062;4.508;2023-04-06T12:54:02;7.55;;;4.40;;
72728;SDS011;60843;52.062;4.508;2023-04-06T12:56:27;7.38;;;4.32;;
72728;SDS011;60843;52.062;4.508;2023-04-06T12:58:53;9.13;;;5.43;;
72728;SDS011;60843;52.062;4.508;2023-04-06T13:01:18;10.82;;;5.90;;
72728;SDS011;60843;52.062;4.508;2023-04-06T13:03:44;10.60;;;4.80;;
72728;SDS011;60843;52.062;4.508;2023-04-06T13:06:10;7.65;;;3.78;;
72728;SDS011;60843;52.062;4.508;2023-04-06T13:08:37;5.20;;;3.55;;
72728;SDS011;60843;52.062;4.508;2023-04-06T13:11:03;7.50;;;4.53;;
72728;SDS011;60843;52.062;4.508;2023-04-06T13:13:30;4.75;;;2.60;;
72728;SDS011;60843;52.062;4.508;2023-04-06T13:15:59;6.05;;;3.08;;
72728;SDS011;60843;52.062;4.508;2023-04-06T13:18:28;6.00;;;3.72;;
72728;SDS011;60843;52.062;4.508;2023-04-06T13:20:55;6.50;;;3.70;;
72728;SDS011;60843;52.062;4.508;2023-04-06T13:23:21;7.53;;;4.85;;
72728;SDS011;60843;52.062;4.508;2023-04-06T13:25:46;10.25;;;5.68;;
72728;SDS011;60843;52.062;4.508;2023-04-06T13:28:12;9.23;;;5.33;;
72728;SDS011;60843;52.062;4.508;2023-04-06T13:30:37;11.23;;;5.60;;
72728;SDS011;60843;52.062;4.508;2023-04-06T13:33:02;11.60;;;6.20;;
72728;SDS011;60843;52.062;4.508;2023-04-06T13:35:29;9.50;;;5.18;;
72728;SDS011;60843;52.062;4.508;2023-04-06T13:37:55;10.07;;;5.95;;
72728;SDS011;60843;52.062;4.508;2023-04-06T13:40:20;7.67;;;4.03;;
72728;SDS011;60843;52.062;4.508;2023-04-06T13:42:46;9.63;;;5.57;;
72728;SDS011;60843;52.062;4.508;2023-04-06T13:45:12;10.50;;;5.10;;
72728;SDS011;60843;52.062;4.508;2023-04-06T13:47:38;7.60;;;4.50;;
72728;SDS011;60843;52.062;4.508;2023-04-06T13:50:04;10.13;;;4.78;;
72728;SDS011;60843;52.062;4.508;2023-04-06T13:52:30;8.50;;;4.78;;
72728;SDS011;60843;52.062;4.508;2023-04-06T13:54:55;9.07;;;5.30;;
72728;SDS011;60843;52.062;4.508;2023-04-06T13:57:21;7.60;;;4.85;;
72728;SDS011;60843;52.062;4.508;2023-04-06T13:59:46;10.60;;;5.82;;
72728;SDS011;60843;52.062;4.508;2023-04-06T14:02:12;11.10;;;6.47;;
72728;SDS011;60843;52.062;4.508;2023-04-06T14:04:39;8.98;;;5.85;;
72728;SDS011;60843;52.062;4.508;2023-04-06T14:07:05;9.77;;;5.03;;
72728;SDS011;60843;52.062;4.508;2023-04-06T14:09:32;10.95;;;5.90;;
72728;SDS011;60843;52.062;4.508;2023-04-06T14:11:58;11.00;;;4.78;;
72728;SDS011;60843;52.062;4.508;2023-04-06T14:14:23;9.55;;;5.75;;
72728;SDS011;60843;52.062;4.508;2023-04-06T14:16:49;10.05;;;5.30;;
72728;SDS011;60843;52.062;4.508;2023-04-06T14:19:15;7.53;;;4.65;;
72728;SDS011;60843;52.062;4.508;2023-04-06T14:21:42;11.30;;;5.88;;
72728;SDS011;60843;52.062;4.508;2023-04-06T14:24:11;7.75;;;4.20;;
72728;SDS011;60843;52.062;4.508;2023-04-06T14:26:38;9.63;;;5.68;;
72728;SDS011;60843;52.062;4.508;2023-04-06T14:29:04;11.93;;;6.43;;
72728;SDS011;60843;52.062;4.508;2023-04-06T14:31:29;11.27;;;6.40;;
72728;SDS011;60843;52.062;4.508;2023-04-06T14:33:55;8.98;;;4.88;;
72728;SDS011;60843;52.062;4.508;2023-04-06T14:36:21;10.73;;;6.57;;
72728;SDS011;60843;52.062;4.508;2023-04-06T14:38:46;12.15;;;5.95;;
72728;SDS011;60843;52.062;4.508;2023-04-06T14:41:19;6.22;;;4.13;;
72728;SDS011;60843;52.062;4.508;2023-04-06T14:43:45;14.43;;;7.45;;
72728;SDS011;60843;52.062;4.508;2023-04-06T14:46:11;9.43;;;5.38;;
72728;SDS011;60843;52.062;4.508;2023-04-06T14:48:36;10.30;;;5.23;;
72728;SDS011;60843;52.062;4.508;2023-04-06T14:51:01;11.53;;;6.40;;
72728;SDS011;60843;52.062;4.508;2023-04-06T14:53:27;8.65;;;5.28;;
72728;SDS011;60843;52.062;4.508;2023-04-06T14:55:53;8.73;;;5.32;;
72728;SDS011;60843;52.062;4.508;2023-04-06T14:58:19;14.98;;;5.70;;